Airfield :
LOGIN :

Register | Disclaimer

   EN    FR    IT 

 










Legend :    VFR   Marginal VFR   IFR   Intensive IFR   Very Intensive IFR
Visi :
Ceiling :
>= 8 km
>= 3000ft
5 to 8 km
1000 to 3000 ft
1500m to 5 km
500 to 1000 ft
800 to 1500m
200 to 500 ft
< 800m
< 200 ft
Symbols :   Thunderstorms  Fog  Heavy snow  Heavy precipitations  Wind > 20 kt
SIGMETs :     Misc.  Thunderstorms  Icing  Turbulence  Mountain Waves  Volcanic Ashes







- Airport Elevation : 364 ft
- IATA code : FRA


EDDF - Frankfurt Int.

CURRENT METAR :
  • 251450Z 06005KT 010V130 CAVOK 15/02 Q1037 NOSIG

EXPIRED METARs :
  • 251420Z 05009KT CAVOK 15/02 Q1037 NOSIG
  • 251350Z 04010KT CAVOK 16/02 Q1038 NOSIG
  • 251320Z 05007KT 340V090 CAVOK 16/02 Q1038 NOSIG
  • 251250Z 05009KT 020V090 CAVOK 15/00 Q1039 NOSIG
  • 251220Z 03009KT 350V080 CAVOK 15/01 Q1039 NOSIG

TAF TAF EDDF
Valid from the 25 at 12:00 until the 26 at 18:00 UTC


251100Z 2512/2618 05006KT CAVOK
BECMG 2610/2613 20004KT
No reported NOTAMs for that airfield.



MET'MAP, your aeronautical weather chart ! - Copyright ORBIFLY December 2007 - Disclaimer

ORBIFLY MET'MAP TEAM :

Programming & Development : Alexandra Zaïnal
Concept & Development : Baudouin d'Aumeries
Co-Development & Prog : Marc-Olivier Méhu
Technical & hardware support : Manuel Goepfert

Contact : metmap@orbifly.com




SOURCES & CREDITS :

   NOAA